Terminal Aerodrome Forecast
Issued by NWS Jackson, MS

Home | Current Version | Previous Version | Text Only | Print | Product List | Glossary On
Versions: 1 2 3 4 5 6 7 8 9 10 11 12 13 14 15 16 17 18 19 20 21 22 23 24
000
FTUS44 KJAN 270500
TAFMEI
TAF
KMEI 270520Z 2706/2806 34006KT P6SM FEW015
     FM270800 36007KT P6SM OVC015
     FM271500 01010KT P6SM SCT015 SCT025=

USA.gov is the U.S. government's official web portal to all federal, state and local government web resources and services.